Gillette, WY

5:25 PM MDT on August 04, 2015 (GMT -0600)
Gillette-Campbell County | | Change Station
CLOSE
Current Station
Airport
Location: Gillette,
Elevation: 4364 ft
Nearby Weather Stations
Active Advisory: Special Statement

Elev 4364 ft 44.34 °N, 105.54 °W | Updated 32 minutes ago

Partly Cloudy
Partly Cloudy
66 °F
Feels Like 66 °F
N
16
Wind Variable Wind from WNW
Gusts 24 mph

Today
High -- | Low -- °F
--% Chance of Precip.
Yesterday
High -- | Low -- °F
Precip. -- in
5:52 AM 8:24 PM
Waning Gibbous, 73% visible
Pressure 29.90 in
Visibility 10.0 miles
Clouds Mostly Cloudy 11000 ft
Dew Point 59 °F
Humidity 78%
Rainfall 0.13 in
Snow Depth Not available.
UV 2 out of 12
Pollen 5.00 out of 12
Air Quality Not available.
Flu Activity Not available.
METAR KGCC 042253Z AUTO 29014G21KT 10SM BKN110 19/15 A2999 RMK AO2 LTG DSNT ALQDS RAE05 SLP124 P0001 T01890150

More Conditions Fewer Conditions

Pressure 29.90 in
Visibility 10.0 miles
Clouds Mostly Cloudy 11000 ft
Dew Point 59 °F
Humidity 78%
Rainfall 0.13 in
Snow Depth Not available.
UV 2 out of 12
Pollen 5.00 out of 12
Air Quality Not available.
Flu Activity Not available.
METAR KGCC 042253Z AUTO 29014G21KT 10SM BKN110 19/15 A2999 RMK AO2 LTG DSNT ALQDS RAE05 SLP124 P0001 T01890150

More Conditions Fewer Conditions

10-Day Weather Forecast

×

Almanac

Astronomy

Aug. 04, 2015 Rise Set
Actual Time
Civil Twilight
Nautical Twilight
Astronomical Twilight
Moon
Length of Visible Light
Length of Day
Tomorrow will be .
, % of the Moon is Illuminated

Today's Extremes

State Highs State Lows

Community

WunderPhotos

Upload Photos

1,844,025 photos uploaded!

WunderBlogs® & News

Nearby

Air Quality

  Air Quality AQ Index Pollutant
Not available.

Snow Depth

Station Depth Elevation

Earthquake Activity

City Distance Mag. Time & Date
Minimum magnitude displayed is 2.5.

Coastal Water Temperatures

Place Temperature

Stations

Nearby Weather Stations

Station Location Temp. Windchill Dew Point Humidity Wind Precip. Elev Updated Type
                   
Special Statement
Statement as of 3:40 PM MDT on August 04, 2015

... Thunderstorms with gusty winds and small hail...

Scattered thunderstorms will continue this afternoon across
northeast Wyoming. Wind gusts of 40 to 50 mph... small hail up to
nickle size and locally heavy rainfall will be possible with any
thunderstorms.


Jc


340 PM MDT Tue Aug 4 2015

... Thunderstorms with gusty winds and small hail...

Scattered thunderstorms will continue this afternoon across
northeast Wyoming. Wind gusts of 40 to 50 mph... small hail up to
nickle size and locally heavy rainfall will be possible with any
thunderstorms.


Jc